Time;durP1;ratioP1;P1;durP2;ratioP2;P2;SDS_P1;SDS_P2;PMS_P1;PMS_P2;Temp;Humidity;BMP_temperature;BMP_pressure;BME280_temperature;BME280_humidity;BME280_pressure;Samples;Min_cycle;Max_cycle;Signal;HPM_P1;HPM_P2
2022/04/11 00:01:31;;;;;;;9.25;4.63;;;;;;;;;;5017062;28;20037;-64
2022/04/11 00:03:57;;;;;;;7.25;4.50;;;;;;;;;;5025808;28;20030;-64
2022/04/11 00:06:25;;;;;;;9.52;4.72;;;;;;;;;;5018824;28;20080;-64
2022/04/11 00:08:51;;;;;;;9.23;4.60;;;;;;;;;;5025272;28;20115;-64
2022/04/11 00:11:16;;;;;;;9.10;4.90;;;;;;;;;;5026621;28;20120;-64
2022/04/11 00:13:41;;;;;;;9.27;4.95;;;;;;;;;;5028016;28;20052;-65
2022/04/11 00:16:07;;;;;;;11.27;4.97;;;;;;;;;;5024854;28;20044;-64
2022/04/11 00:18:38;;;;;;;8.77;4.88;;;;;;;;;;5027892;28;20104;-64
2022/04/11 00:21:04;;;;;;;8.05;4.47;;;;;;;;;;5026205;28;20056;-65
2022/04/11 00:23:29;;;;;;;7.43;4.35;;;;;;;;;;5016267;28;20033;-65
2022/04/11 00:25:54;;;;;;;11.38;4.95;;;;;;;;;;5018045;28;20133;-65
2022/04/11 00:28:20;;;;;;;8.93;4.60;;;;;;;;;;5022020;28;20033;-64
2022/04/11 00:30:45;;;;;;;11.05;5.15;;;;;;;;;;5013825;28;20778;-64
2022/04/11 00:33:11;;;;;;;8.32;4.70;;;;;;;;;;5011487;28;20029;-64
2022/04/11 00:35:36;;;;;;;10.48;5.07;;;;;;;;;;5022372;28;20117;-65
2022/04/11 00:38:01;;;;;;;8.50;4.72;;;;;;;;;;5009744;28;20038;-64
2022/04/11 00:40:27;;;;;;;10.15;5.00;;;;;;;;;;5017621;28;20045;-65
2022/04/11 00:42:52;;;;;;;13.25;5.00;;;;;;;;;;5011131;28;20475;-65
2022/04/11 00:45:18;;;;;;;10.52;5.25;;;;;;;;;;5028319;28;20034;-65
2022/04/11 00:47:46;;;;;;;11.55;5.10;;;;;;;;;;5021823;28;20491;-64
2022/04/11 00:50:13;;;;;;;9.55;5.35;;;;;;;;;;5026476;28;20038;-64
2022/04/11 00:53:12;;;;;;;10.55;5.07;;;;;;;;;;5014061;28;20034;-64
2022/04/11 00:55:37;;;;;;;10.65;5.32;;;;;;;;;;5021543;28;20037;-65
2022/04/11 00:58:05;;;;;;;11.73;5.30;;;;;;;;;;5011869;28;20369;-65
2022/04/11 01:00:30;;;;;;;10.43;5.38;;;;;;;;;;5012804;28;20037;-64
2022/04/11 01:02:56;;;;;;;10.30;5.30;;;;;;;;;;5012149;28;20042;-64
2022/04/11 01:05:21;;;;;;;8.30;4.65;;;;;;;;;;5024505;28;20041;-64
2022/04/11 01:07:47;;;;;;;9.38;5.10;;;;;;;;;;5028510;28;20501;-65
2022/04/11 01:10:13;;;;;;;14.20;5.50;;;;;;;;;;5023535;28;20030;-64
2022/04/11 01:12:41;;;;;;;10.60;5.53;;;;;;;;;;5022637;28;20033;-65
2022/04/11 01:15:06;;;;;;;9.05;5.35;;;;;;;;;;5024065;28;20379;-64
2022/04/11 01:17:37;;;;;;;9.10;5.22;;;;;;;;;;5022648;28;20109;-64
2022/04/11 01:20:10;;;;;;;11.07;5.13;;;;;;;;;;5023355;28;20057;-63
2022/04/11 01:22:37;;;;;;;8.65;5.07;;;;;;;;;;5027155;28;20029;-64
2022/04/11 01:25:03;;;;;;;10.65;5.40;;;;;;;;;;5028682;28;20036;-64
2022/04/11 01:27:31;;;;;;;12.82;5.40;;;;;;;;;;5030476;28;20040;-64
2022/04/11 01:29:56;;;;;;;9.27;5.25;;;;;;;;;;5015631;28;20541;-65
2022/04/11 01:32:22;;;;;;;9.55;5.20;;;;;;;;;;5024257;28;20117;-64
2022/04/11 01:34:47;;;;;;;9.10;5.20;;;;;;;;;;5020188;28;20029;-64
2022/04/11 01:37:12;;;;;;;9.63;5.28;;;;;;;;;;5029354;28;20061;-64
2022/04/11 01:39:38;;;;;;;11.52;5.55;;;;;;;;;;5030458;28;20033;-64
2022/04/11 01:42:04;;;;;;;9.70;4.82;;;;;;;;;;5025439;28;20029;-65
2022/04/11 01:44:29;;;;;;;11.10;5.15;;;;;;;;;;5030380;28;20034;-64
2022/04/11 01:46:54;;;;;;;10.25;5.50;;;;;;;;;;5030457;28;20045;-64
2022/04/11 01:49:20;;;;;;;10.13;5.10;;;;;;;;;;5019021;28;20463;-64
2022/04/11 01:51:45;;;;;;;8.95;4.90;;;;;;;;;;5030303;28;20030;-64
2022/04/11 01:54:11;;;;;;;8.35;5.10;;;;;;;;;;5017644;28;20075;-64
2022/04/11 01:56:36;;;;;;;11.77;5.25;;;;;;;;;;5017460;28;20053;-64
2022/04/11 01:59:01;;;;;;;8.60;4.78;;;;;;;;;;5031979;28;20041;-64
2022/04/11 02:01:27;;;;;;;8.93;5.10;;;;;;;;;;5023568;28;20036;-64
2022/04/11 02:03:52;;;;;;;11.15;5.07;;;;;;;;;;5027598;28;20039;-64
2022/04/11 02:06:17;;;;;;;9.02;4.75;;;;;;;;;;5033664;28;20437;-64
2022/04/11 02:08:43;;;;;;;11.02;4.95;;;;;;;;;;5012592;28;20046;-64
2022/04/11 02:11:08;;;;;;;9.07;4.85;;;;;;;;;;5012933;28;20438;-64
2022/04/11 02:13:36;;;;;;;9.00;5.15;;;;;;;;;;5027996;28;20069;-64
2022/04/11 02:16:02;;;;;;;10.77;4.65;;;;;;;;;;5031665;28;20037;-64
2022/04/11 02:18:27;;;;;;;9.35;4.72;;;;;;;;;;5029272;28;20041;-64
2022/04/11 02:20:53;;;;;;;8.85;4.50;;;;;;;;;;5018631;28;20041;-64
2022/04/11 02:23:18;;;;;;;6.82;4.20;;;;;;;;;;5023277;28;20117;-64
2022/04/11 02:25:43;;;;;;;10.27;5.00;;;;;;;;;;5023811;28;20037;-64
2022/04/11 02:28:09;;;;;;;8.63;4.32;;;;;;;;;;5031802;28;20086;-65
2022/04/11 02:30:34;;;;;;;7.47;4.35;;;;;;;;;;5029149;28;20061;-64
2022/04/11 02:33:00;;;;;;;8.82;4.55;;;;;;;;;;5017693;28;20399;-64
2022/04/11 02:35:25;;;;;;;10.00;4.38;;;;;;;;;;5012453;28;20061;-64
2022/04/11 02:37:51;;;;;;;7.10;4.00;;;;;;;;;;5013093;28;20046;-65
2022/04/11 02:40:16;;;;;;;7.28;4.32;;;;;;;;;;5027169;28;20033;-64
2022/04/11 02:42:43;;;;;;;8.15;4.38;;;;;;;;;;5031181;28;20037;-64
2022/04/11 02:45:13;;;;;;;8.43;4.30;;;;;;;;;;5016759;28;20111;-64
2022/04/11 02:47:39;;;;;;;8.23;4.70;;;;;;;;;;5028172;28;20105;-65
2022/04/11 02:50:05;;;;;;;7.88;4.25;;;;;;;;;;5023390;28;20033;-64
2022/04/11 02:52:30;;;;;;;8.10;4.03;;;;;;;;;;5012308;28;20486;-65
2022/04/11 02:54:56;;;;;;;7.10;3.97;;;;;;;;;;5016297;28;20037;-64
2022/04/11 02:57:22;;;;;;;7.72;4.22;;;;;;;;;;5028253;28;20063;-64
2022/04/11 02:59:48;;;;;;;7.88;3.95;;;;;;;;;;5022034;28;20026;-65
2022/04/11 03:02:14;;;;;;;9.18;3.97;;;;;;;;;;5028000;28;20111;-64
2022/04/11 03:04:39;;;;;;;8.60;4.25;;;;;;;;;;5014703;28;20037;-64
2022/04/11 03:07:05;;;;;;;8.20;4.18;;;;;;;;;;5017982;28;20029;-64
2022/04/11 03:09:31;;;;;;;9.32;3.97;;;;;;;;;;5032082;28;20029;-64
2022/04/11 03:11:56;;;;;;;6.97;4.05;;;;;;;;;;5024811;28;20099;-64
2022/04/11 03:14:22;;;;;;;7.38;4.13;;;;;;;;;;5015272;28;20092;-64
2022/04/11 03:16:48;;;;;;;8.48;4.30;;;;;;;;;;5010355;28;20061;-64
2022/04/11 03:19:13;;;;;;;8.93;4.10;;;;;;;;;;5012772;28;20037;-64
2022/04/11 03:21:39;;;;;;;9.13;4.57;;;;;;;;;;5020840;28;20145;-64
2022/04/11 03:24:05;;;;;;;9.73;4.50;;;;;;;;;;5020454;28;20045;-64
2022/04/11 03:26:30;;;;;;;8.07;4.13;;;;;;;;;;5017441;28;20037;-65
2022/04/11 03:28:56;;;;;;;7.60;4.05;;;;;;;;;;5030490;28;20068;-64
2022/04/11 03:31:21;;;;;;;7.28;4.18;;;;;;;;;;5019955;28;20471;-64
2022/04/11 03:33:46;;;;;;;11.65;4.30;;;;;;;;;;5017837;28;20032;-64
2022/04/11 03:36:12;;;;;;;7.30;4.50;;;;;;;;;;5023053;28;20495;-64
2022/04/11 03:38:37;;;;;;;7.10;4.28;;;;;;;;;;5020865;28;20034;-64
2022/04/11 03:41:03;;;;;;;7.93;4.20;;;;;;;;;;5011417;28;20037;-64
2022/04/11 03:43:28;;;;;;;9.68;4.32;;;;;;;;;;5022872;28;20030;-65
2022/04/11 03:45:53;;;;;;;6.93;4.10;;;;;;;;;;5011273;28;20046;-64
2022/04/11 03:48:19;;;;;;;7.95;4.57;;;;;;;;;;5024703;28;20041;-64
2022/04/11 03:50:44;;;;;;;10.05;4.30;;;;;;;;;;5027655;28;20037;-64
2022/04/11 03:53:10;;;;;;;9.50;4.60;;;;;;;;;;5017769;28;20035;-64
2022/04/11 03:55:35;;;;;;;8.20;4.10;;;;;;;;;;5031797;28;20467;-64
2022/04/11 03:58:01;;;;;;;8.13;4.05;;;;;;;;;;5023758;28;20049;-64
2022/04/11 04:00:26;;;;;;;7.80;4.22;;;;;;;;;;5030291;28;20072;-64
2022/04/11 04:02:52;;;;;;;6.15;3.97;;;;;;;;;;5009880;28;20084;-64
2022/04/11 04:05:17;;;;;;;8.98;4.35;;;;;;;;;;5022409;28;20095;-64
2022/04/11 04:07:43;;;;;;;7.32;4.22;;;;;;;;;;5027086;28;20033;-64
2022/04/11 04:10:08;;;;;;;7.80;3.90;;;;;;;;;;5031048;28;20391;-64
2022/04/11 04:12:34;;;;;;;6.55;3.90;;;;;;;;;;5009332;28;20029;-64
2022/04/11 04:15:00;;;;;;;8.23;4.20;;;;;;;;;;5026045;28;20518;-64
2022/04/11 04:17:25;;;;;;;8.50;3.92;;;;;;;;;;5013789;28;20049;-64
2022/04/11 04:19:51;;;;;;;8.50;4.78;;;;;;;;;;5025581;28;20029;-64
2022/04/11 04:22:16;;;;;;;9.05;4.82;;;;;;;;;;5014764;28;20463;-65
2022/04/11 04:24:42;;;;;;;7.07;4.10;;;;;;;;;;5009885;28;20041;-64
2022/04/11 04:27:08;;;;;;;9.75;4.57;;;;;;;;;;5022540;28;20122;-65
2022/04/11 04:29:34;;;;;;;10.82;4.60;;;;;;;;;;5014498;28;20037;-64
2022/04/11 04:32:00;;;;;;;9.45;4.20;;;;;;;;;;5025248;28;20399;-65
2022/04/11 04:34:25;;;;;;;9.02;4.20;;;;;;;;;;5028340;28;20044;-65
2022/04/11 04:36:52;;;;;;;8.50;4.18;;;;;;;;;;5028369;28;20044;-65
2022/04/11 04:39:17;;;;;;;8.68;4.57;;;;;;;;;;5024029;28;20056;-64
2022/04/11 04:41:42;;;;;;;10.32;4.50;;;;;;;;;;5029628;28;20467;-65
2022/04/11 04:44:08;;;;;;;9.63;4.55;;;;;;;;;;5018901;28;20033;-64
2022/04/11 04:46:34;;;;;;;8.32;4.38;;;;;;;;;;5011223;28;20030;-65
2022/04/11 04:49:00;;;;;;;8.88;4.85;;;;;;;;;;5025484;28;20033;-65
2022/04/11 04:51:26;;;;;;;6.88;4.45;;;;;;;;;;5029663;28;20034;-64
2022/04/11 04:53:51;;;;;;;10.85;4.88;;;;;;;;;;5027645;28;20395;-64
2022/04/11 04:56:17;;;;;;;8.27;4.38;;;;;;;;;;5027389;28;20068;-64
2022/04/11 04:58:45;;;;;;;8.50;4.55;;;;;;;;;;5011840;28;20040;-64
2022/04/11 05:01:11;;;;;;;8.60;4.63;;;;;;;;;;5011406;28;20034;-65
2022/04/11 05:03:37;;;;;;;8.88;4.80;;;;;;;;;;5010739;28;20480;-65
2022/04/11 05:06:03;;;;;;;9.20;4.70;;;;;;;;;;5023946;28;20034;-64
2022/04/11 05:08:28;;;;;;;7.35;4.57;;;;;;;;;;5022594;28;20496;-64
2022/04/11 05:10:54;;;;;;;10.20;4.53;;;;;;;;;;5030708;28;20060;-64
2022/04/11 05:13:19;;;;;;;6.15;4.45;;;;;;;;;;5020977;28;20041;-65
2022/04/11 05:15:46;;;;;;;7.28;4.15;;;;;;;;;;5034962;28;20072;-65
2022/04/11 05:18:13;;;;;;;8.05;4.32;;;;;;;;;;5032702;28;20038;-64
2022/04/11 05:20:38;;;;;;;10.10;4.95;;;;;;;;;;5032263;28;20049;-64
2022/04/11 05:23:04;;;;;;;6.22;4.07;;;;;;;;;;5014463;28;20060;-65
2022/04/11 05:25:29;;;;;;;9.73;4.32;;;;;;;;;;5017677;28;20026;-65
2022/04/11 05:27:54;;;;;;;11.35;4.28;;;;;;;;;;5030134;28;20750;-66
2022/04/11 05:30:20;;;;;;;8.65;4.60;;;;;;;;;;5020647;28;20026;-65
2022/04/11 05:32:45;;;;;;;8.02;4.40;;;;;;;;;;5032012;28;20099;-64
2022/04/11 05:35:11;;;;;;;11.10;5.22;;;;;;;;;;5029245;28;20042;-64
2022/04/11 05:37:36;;;;;;;9.75;5.13;;;;;;;;;;5023743;28;20030;-66
2022/04/11 05:40:03;;;;;;;7.47;4.47;;;;;;;;;;5013842;28;20034;-65
2022/04/11 05:42:28;;;;;;;10.20;4.97;;;;;;;;;;5015948;28;20479;-65
2022/04/11 05:44:54;;;;;;;10.65;5.38;;;;;;;;;;5019209;28;20095;-64
2022/04/11 05:47:19;;;;;;;13.43;5.28;;;;;;;;;;5031667;28;20031;-63
2022/04/11 05:49:45;;;;;;;10.30;5.13;;;;;;;;;;5014227;28;20048;-64
2022/04/11 05:52:14;;;;;;;9.45;4.85;;;;;;;;;;5013166;28;20025;-64
2022/04/11 05:54:39;;;;;;;8.45;4.75;;;;;;;;;;5020644;28;20521;-64
2022/04/11 05:57:05;;;;;;;9.15;4.25;;;;;;;;;;5031965;28;20033;-65
2022/04/11 05:59:30;;;;;;;13.23;4.57;;;;;;;;;;5032814;28;20060;-64
2022/04/11 06:01:56;;;;;;;9.60;4.90;;;;;;;;;;5028005;28;20030;-65
2022/04/11 06:04:21;;;;;;;7.97;4.32;;;;;;;;;;5021352;28;20057;-64
2022/04/11 06:06:46;;;;;;;7.90;4.07;;;;;;;;;;5025018;28;20036;-64
2022/04/11 06:09:12;;;;;;;11.18;4.30;;;;;;;;;;5029803;28;20029;-64
2022/04/11 06:11:37;;;;;;;7.15;4.20;;;;;;;;;;5022918;28;20390;-65
2022/04/11 06:14:03;;;;;;;8.40;3.95;;;;;;;;;;5033148;28;20498;-64
2022/04/11 06:16:28;;;;;;;10.90;4.20;;;;;;;;;;5031057;28;20037;-65
2022/04/11 06:18:54;;;;;;;6.43;3.80;;;;;;;;;;5013523;28;20037;-65
2022/04/11 06:21:19;;;;;;;7.72;4.25;;;;;;;;;;5019059;28;20129;-64
2022/04/11 06:23:44;;;;;;;7.25;4.30;;;;;;;;;;5021931;28;20064;-65
2022/04/11 06:26:10;;;;;;;7.63;4.07;;;;;;;;;;5015654;28;20030;-65
2022/04/11 06:28:35;;;;;;;10.27;4.38;;;;;;;;;;5022296;28;20033;-65
2022/04/11 06:31:01;;;;;;;9.65;4.50;;;;;;;;;;5028286;28;20502;-65
2022/04/11 06:33:26;;;;;;;10.85;4.30;;;;;;;;;;5026035;28;20063;-64
2022/04/11 06:35:51;;;;;;;11.10;4.50;;;;;;;;;;5014702;28;20038;-65
2022/04/11 06:38:17;;;;;;;8.95;4.70;;;;;;;;;;5013582;28;20464;-65
2022/04/11 06:40:42;;;;;;;8.40;4.47;;;;;;;;;;5026255;28;20044;-65
2022/04/11 06:43:07;;;;;;;12.40;4.63;;;;;;;;;;5029630;28;20975;-65
2022/04/11 06:45:33;;;;;;;9.27;4.60;;;;;;;;;;5033412;28;20026;-65
2022/04/11 06:47:58;;;;;;;9.75;4.60;;;;;;;;;;5028118;28;20055;-64
2022/04/11 06:50:23;;;;;;;9.50;5.00;;;;;;;;;;5017571;28;20040;-64
2022/04/11 06:52:49;;;;;;;8.93;4.65;;;;;;;;;;5029818;28;20383;-64
2022/04/11 06:55:14;;;;;;;10.05;4.60;;;;;;;;;;5031927;28;20116;-65
2022/04/11 06:57:40;;;;;;;11.43;5.65;;;;;;;;;;5031467;28;20040;-65
2022/04/11 07:00:06;;;;;;;10.40;4.80;;;;;;;;;;5028142;28;20037;-64
2022/04/11 07:02:32;;;;;;;11.23;4.70;;;;;;;;;;5013584;28;20041;-65
2022/04/11 07:04:57;;;;;;;10.48;4.65;;;;;;;;;;5013295;28;20037;-65
2022/04/11 07:07:23;;;;;;;10.05;4.65;;;;;;;;;;5025242;28;20041;-65
2022/04/11 07:09:48;;;;;;;10.93;4.70;;;;;;;;;;5012787;28;20403;-64
2022/04/11 07:12:14;;;;;;;7.47;4.40;;;;;;;;;;5011122;28;20025;-64
2022/04/11 07:14:39;;;;;;;10.55;4.75;;;;;;;;;;5013481;28;20493;-64
2022/04/11 07:17:05;;;;;;;10.63;4.65;;;;;;;;;;5012370;28;20052;-64
2022/04/11 07:19:30;;;;;;;9.48;4.70;;;;;;;;;;5014047;28;20034;-64
2022/04/11 07:21:56;;;;;;;7.40;4.03;;;;;;;;;;5027162;28;20046;-65
2022/04/11 07:24:21;;;;;;;10.45;4.53;;;;;;;;;;5013297;28;20060;-65
2022/04/11 07:26:47;;;;;;;9.55;3.92;;;;;;;;;;5026292;28;20026;-64
2022/04/11 07:29:12;;;;;;;7.07;3.88;;;;;;;;;;5013517;28;20018;-64
2022/04/11 07:31:38;;;;;;;7.78;3.75;;;;;;;;;;5011163;28;20070;-64
2022/04/11 07:34:04;;;;;;;7.10;3.58;;;;;;;;;;5015355;28;20088;-65
2022/04/11 07:36:29;;;;;;;7.60;3.50;;;;;;;;;;5032154;28;20043;-64
2022/04/11 07:38:56;;;;;;;12.00;3.70;;;;;;;;;;5024556;28;20073;-64
2022/04/11 07:41:22;;;;;;;9.07;3.47;;;;;;;;;;5030473;28;20048;-64
2022/04/11 07:43:48;;;;;;;6.22;3.03;;;;;;;;;;5011619;28;20034;-65
2022/04/11 07:46:13;;;;;;;6.22;3.00;;;;;;;;;;5028297;28;20648;-65
2022/04/11 07:48:39;;;;;;;8.30;3.20;;;;;;;;;;5032501;28;20414;-65
2022/04/11 07:51:05;;;;;;;7.78;3.30;;;;;;;;;;5026919;28;20029;-64
2022/04/11 07:53:30;;;;;;;8.50;3.10;;;;;;;;;;5014541;28;20061;-63
2022/04/11 07:55:56;;;;;;;6.55;3.17;;;;;;;;;;5017714;28;20399;-65
2022/04/11 07:58:21;;;;;;;6.63;3.00;;;;;;;;;;5030689;28;20034;-65
2022/04/11 08:00:53;;;;;;;7.28;3.05;;;;;;;;;;5025147;28;20038;-65
2022/04/11 08:03:18;;;;;;;;;;;;;;;;;;5048363;28;20047;-65
2022/04/11 08:05:44;;;;;;;6.50;3.08;;;;;;;;;;5033712;28;20289;-67
2022/04/11 08:08:10;;;;;;;5.95;2.85;;;;;;;;;;5030945;28;20033;-66
2022/04/11 08:10:36;;;;;;;8.77;3.10;;;;;;;;;;5014795;28;20099;-66
2022/04/11 08:13:01;;;;;;;6.68;3.10;;;;;;;;;;5026595;28;20057;-67
2022/04/11 08:15:29;;;;;;;6.00;2.83;;;;;;;;;;5035753;28;20120;-66
2022/04/11 08:17:56;;;;;;;6.05;3.00;;;;;;;;;;5032373;28;20033;-65
2022/04/11 08:20:22;;;;;;;7.50;2.97;;;;;;;;;;5031176;28;20041;-66
2022/04/11 08:22:48;;;;;;;6.82;3.00;;;;;;;;;;5028404;28;20441;-66
2022/04/11 08:25:14;;;;;;;6.32;3.05;;;;;;;;;;5020782;28;20511;-66
2022/04/11 08:27:39;;;;;;;5.80;2.97;;;;;;;;;;5023918;28;20388;-66
2022/04/11 08:30:06;;;;;;;6.78;3.50;;;;;;;;;;5029266;28;20474;-65
2022/04/11 08:32:43;;;;;;;5.75;2.40;;;;;;;;;;5034603;28;20476;-66
2022/04/11 08:35:09;;;;;;;7.22;2.65;;;;;;;;;;5030287;28;20036;-65
2022/04/11 08:37:40;;;;;;;6.07;2.90;;;;;;;;;;5032085;28;20410;-67
2022/04/11 08:40:18;;;;;;;10.25;3.33;;;;;;;;;;5029691;28;20041;-66
2022/04/11 08:42:45;;;;;;;5.72;2.80;;;;;;;;;;5029578;28;20391;-66
2022/04/11 08:45:14;;;;;;;5.97;3.03;;;;;;;;;;5034090;28;20026;-66
2022/04/11 08:47:40;;;;;;;7.25;3.10;;;;;;;;;;5047322;28;20040;-66
2022/04/11 08:50:10;;;;;;;6.93;2.83;;;;;;;;;;5034483;28;20443;-67
2022/04/11 08:52:36;;;;;;;5.80;3.20;;;;;;;;;;5034813;28;20041;-66
2022/04/11 08:55:02;;;;;;;6.88;2.72;;;;;;;;;;5034516;28;20029;-66
2022/04/11 08:57:28;;;;;;;7.03;3.28;;;;;;;;;;5030032;28;20038;-66
2022/04/11 08:59:54;;;;;;;7.20;2.95;;;;;;;;;;5020000;28;20041;-66
2022/04/11 09:02:29;;;;;;;8.48;3.35;;;;;;;;;;5029149;28;20022;-65
2022/04/11 09:04:56;;;;;;;9.60;3.30;;;;;;;;;;5015709;28;20065;-64
2022/04/11 09:07:23;;;;;;;10.35;3.28;;;;;;;;;;5015252;28;20037;-64
2022/04/11 09:09:49;;;;;;;7.32;3.20;;;;;;;;;;5015157;28;20022;-64
2022/04/11 09:12:17;;;;;;;7.78;3.20;;;;;;;;;;5032505;28;20549;-66
2022/04/11 09:14:50;;;;;;;7.40;3.15;;;;;;;;;;5025557;28;20414;-66
2022/04/11 09:17:15;;;;;;;8.05;3.42;;;;;;;;;;5013835;28;20026;-66
2022/04/11 09:19:41;;;;;;;5.70;3.38;;;;;;;;;;5018199;28;20033;-66
2022/04/11 09:22:07;;;;;;;6.85;3.35;;;;;;;;;;5027576;28;20206;-66
2022/04/11 09:24:32;;;;;;;6.57;3.30;;;;;;;;;;5035284;28;20025;-66
2022/04/11 09:26:58;;;;;;;5.80;3.33;;;;;;;;;;5034040;28;20111;-66
2022/04/11 09:29:24;;;;;;;7.40;3.85;;;;;;;;;;5023552;28;20029;-67
2022/04/11 09:31:50;;;;;;;7.47;3.88;;;;;;;;;;5035259;28;20033;-68
2022/04/11 09:34:20;;;;;;;7.53;3.80;;;;;;;;;;5017559;28;20066;-65
2022/04/11 09:36:54;;;;;;;6.82;3.33;;;;;;;;;;5015198;28;20041;-66
2022/04/11 09:39:22;;;;;;;7.78;3.67;;;;;;;;;;5029636;28;20037;-67
2022/04/11 09:41:48;;;;;;;6.80;3.28;;;;;;;;;;5036890;28;20040;-66
2022/04/11 09:44:24;;;;;;;9.35;3.42;;;;;;;;;;5024346;28;20037;-66
2022/04/11 09:46:51;;;;;;;10.85;4.03;;;;;;;;;;5030777;28;20033;-66
2022/04/11 09:49:17;;;;;;;9.73;2.97;;;;;;;;;;5015220;28;20041;-66
2022/04/11 09:52:12;;;;;;;5.72;2.90;;;;;;;;;;5033250;28;20136;-66
2022/04/11 09:54:42;;;;;;;7.45;3.28;;;;;;;;;;5025084;28;20402;-66
2022/04/11 09:57:07;;;;;;;4.87;2.80;;;;;;;;;;5030961;28;20030;-66
2022/04/11 09:59:34;;;;;;;5.15;3.10;;;;;;;;;;5012957;28;20088;-66
2022/04/11 10:02:00;;;;;;;7.47;3.10;;;;;;;;;;5030945;28;20525;-66
2022/04/11 10:04:27;;;;;;;6.50;3.22;;;;;;;;;;5013933;28;20042;-66
2022/04/11 10:06:54;;;;;;;5.72;2.90;;;;;;;;;;5032552;28;20428;-66
2022/04/11 10:09:21;;;;;;;6.05;3.08;;;;;;;;;;5032802;28;20408;-67
2022/04/11 10:11:47;;;;;;;6.68;3.13;;;;;;;;;;5030818;28;20034;-67
2022/04/11 10:14:23;;;;;;;6.03;3.10;;;;;;;;;;5032578;28;20029;-66
2022/04/11 10:16:50;;;;;;;6.97;3.22;;;;;;;;;;5014821;28;20484;-67
2022/04/11 10:19:16;;;;;;;7.22;3.38;;;;;;;;;;5035489;28;20029;-67
2022/04/11 10:21:44;;;;;;;7.78;3.38;;;;;;;;;;5015981;28;20050;-67
2022/04/11 10:24:35;;;;;;;9.07;3.60;;;;;;;;;;5014210;28;20033;-66
2022/04/11 10:27:34;;;;;;;6.72;3.47;;;;;;;;;;5013706;28;20040;-67
2022/04/11 10:30:02;;;;;;;6.78;3.25;;;;;;;;;;5004545;28;20042;-66
2022/04/11 10:32:29;;;;;;;7.97;3.55;;;;;;;;;;5023787;28;20061;-66
2022/04/11 10:34:57;;;;;;;6.22;3.15;;;;;;;;;;5028047;28;20033;-66
2022/04/11 10:37:26;;;;;;;5.78;3.03;;;;;;;;;;5020487;28;20059;-67
2022/04/11 10:39:53;;;;;;;5.93;3.20;;;;;;;;;;5013383;28;20057;-66
2022/04/11 10:42:20;;;;;;;8.00;3.00;;;;;;;;;;5014477;28;20037;-66
2022/04/11 10:44:51;;;;;;;8.07;3.13;;;;;;;;;;5012878;28;20026;-66
2022/04/11 10:47:16;;;;;;;9.00;3.60;;;;;;;;;;5012905;28;20073;-66
2022/04/11 10:49:45;;;;;;;5.80;3.20;;;;;;;;;;5013808;28;20061;-66
2022/04/11 10:52:32;;;;;;;6.97;3.13;;;;;;;;;;5011436;28;20436;-65
2022/04/11 10:55:18;;;;;;;4.97;3.00;;;;;;;;;;5019252;28;20036;-66
2022/04/11 10:57:44;;;;;;;6.55;3.10;;;;;;;;;;5013016;28;20377;-67
2022/04/11 11:00:13;;;;;;;5.90;3.30;;;;;;;;;;5012637;28;20038;-66
2022/04/11 11:02:48;;;;;;;6.88;3.22;;;;;;;;;;5013464;28;20402;-67
2022/04/11 11:05:49;;;;;;;8.63;3.72;;;;;;;;;;5011703;28;20088;-65
2022/04/11 11:08:15;;;;;;;;;;;;;;;;;;5031540;28;20041;-66
2022/04/11 11:10:52;;;;;;;7.60;3.30;;;;;;;;;;5022441;28;20278;-67
2022/04/11 11:13:39;;;;;;;7.40;3.10;;;;;;;;;;5031869;28;20029;-66
2022/04/11 11:16:07;;;;;;;6.68;3.38;;;;;;;;;;5019835;28;20033;-65
2022/04/11 11:18:51;;;;;;;5.97;3.00;;;;;;;;;;5014023;28;20036;-65
2022/04/11 11:21:37;;;;;;;5.45;2.90;;;;;;;;;;5018724;28;20049;-66
2022/04/11 11:24:10;;;;;;;5.38;2.65;;;;;;;;;;5025549;28;20124;-67
2022/04/11 11:26:48;;;;;;;8.13;2.92;;;;;;;;;;5012878;28;20040;-66
2022/04/11 11:29:22;;;;;;;6.70;3.10;;;;;;;;;;5020199;28;20107;-66
2022/04/11 11:31:52;;;;;;;5.28;3.40;;;;;;;;;;5031680;28;20037;-66
2022/04/11 11:34:21;;;;;;;4.53;3.00;;;;;;;;;;5030733;28;20030;-66
2022/04/11 11:36:47;;;;;;;7.13;3.20;;;;;;;;;;5030530;28;20176;-66
2022/04/11 11:39:17;;;;;;;6.20;2.90;;;;;;;;;;5027323;28;20033;-65
2022/04/11 11:41:43;;;;;;;4.53;3.00;;;;;;;;;;5023946;28;20036;-66
2022/04/11 11:44:09;;;;;;;5.60;3.20;;;;;;;;;;5023954;28;20042;-67
2022/04/11 11:46:47;;;;;;;6.68;3.10;;;;;;;;;;5031054;28;20037;-67
2022/04/11 11:49:13;;;;;;;6.88;3.30;;;;;;;;;;5030534;28;20029;-65
2022/04/11 11:51:38;;;;;;;7.03;3.70;;;;;;;;;;5016637;28;20032;-68
2022/04/11 11:54:04;;;;;;;4.95;3.15;;;;;;;;;;5029050;28;20463;-71
2022/04/11 11:56:46;;;;;;;6.40;3.40;;;;;;;;;;5013021;28;20120;-71
2022/04/11 11:59:12;;;;;;;6.07;3.33;;;;;;;;;;5040661;28;20028;-66
2022/04/11 12:01:39;;;;;;;6.57;3.20;;;;;;;;;;5046764;28;20033;-68
2022/04/11 12:04:20;;;;;;;6.78;3.00;;;;;;;;;;5031911;28;20087;-72
2022/04/11 12:06:53;;;;;;;5.72;3.20;;;;;;;;;;5013736;28;20033;-65
2022/04/11 12:09:19;;;;;;;7.20;3.20;;;;;;;;;;5029239;28;20163;-65
2022/04/11 12:11:44;;;;;;;5.47;3.03;;;;;;;;;;5031889;28;20033;-66
2022/04/11 12:14:10;;;;;;;4.60;2.90;;;;;;;;;;5031824;28;20033;-67
2022/04/11 12:16:38;;;;;;;4.40;3.03;;;;;;;;;;5031545;28;20033;-65
2022/04/11 12:19:05;;;;;;;5.68;2.78;;;;;;;;;;5012311;28;20034;-65
2022/04/11 12:21:50;;;;;;;4.15;2.70;;;;;;;;;;5009784;28;20116;-66
2022/04/11 12:24:15;;;;;;;5.15;3.00;;;;;;;;;;5010913;28;20114;-65
2022/04/11 12:26:46;;;;;;;5.63;2.78;;;;;;;;;;5011976;28;20179;-66
2022/04/11 12:29:14;;;;;;;8.65;3.20;;;;;;;;;;5024610;28;20025;-66
2022/04/11 12:32:00;;;;;;;5.07;2.80;;;;;;;;;;5031732;28;20026;-66
2022/04/11 12:34:33;;;;;;;6.28;3.28;;;;;;;;;;5032357;28;20060;-69
2022/04/11 12:37:02;;;;;;;5.53;3.08;;;;;;;;;;5018147;28;20038;-66
2022/04/11 12:40:17;;;;;;;6.95;3.10;;;;;;;;;;5010738;28;20030;-72
2022/04/11 12:42:43;;;;;;;4.30;2.78;;;;;;;;;;5012336;28;20040;-66
2022/04/11 12:45:12;;;;;;;5.15;3.00;;;;;;;;;;5039912;28;20120;-66
2022/04/11 12:48:06;;;;;;;7.97;2.90;;;;;;;;;;5011439;28;20037;-65
2022/04/11 12:50:32;;;;;;;4.97;2.80;;;;;;;;;;5019443;28;20021;-65
2022/04/11 12:52:58;;;;;;;5.30;3.00;;;;;;;;;;5032936;28;20084;-66
2022/04/11 12:55:28;;;;;;;4.72;2.60;;;;;;;;;;5016322;28;20030;-66
2022/04/11 12:58:01;;;;;;;5.30;2.65;;;;;;;;;;5011812;28;20459;-67
2022/04/11 13:00:27;;;;;;;5.75;2.83;;;;;;;;;;5036506;28;20061;-66
2022/04/11 13:02:52;;;;;;;5.03;2.30;;;;;;;;;;5011663;28;20104;-66
2022/04/11 13:05:18;;;;;;;6.90;3.08;;;;;;;;;;5009358;28;20034;-66
2022/04/11 13:07:56;;;;;;;5.63;2.80;;;;;;;;;;5029728;28;20463;-67
2022/04/11 13:10:23;;;;;;;5.82;2.88;;;;;;;;;;5025015;28;20044;-65
2022/04/11 13:12:50;;;;;;;3.90;2.60;;;;;;;;;;5030383;28;20037;-65
2022/04/11 13:15:16;;;;;;;5.75;2.80;;;;;;;;;;5010450;28;20145;-64
2022/04/11 13:20:27;;;;;;;4.28;2.60;;;;;;;;;;5029773;28;20121;-63
2022/04/11 13:22:53;;;;;;;4.15;2.67;;;;;;;;;;5027510;28;20084;-64
2022/04/11 13:25:20;;;;;;;4.95;2.72;;;;;;;;;;5018072;28;20112;-65
2022/04/11 13:27:46;;;;;;;4.85;2.83;;;;;;;;;;5025983;28;20471;-65
2022/04/11 13:30:12;;;;;;;4.85;2.85;;;;;;;;;;5030261;28;20440;-65
2022/04/11 13:32:38;;;;;;;6.70;2.97;;;;;;;;;;5033134;28;20056;-65
2022/04/11 13:35:03;;;;;;;7.90;3.28;;;;;;;;;;5019109;28;20037;-67
2022/04/11 13:37:29;;;;;;;7.05;3.20;;;;;;;;;;5025898;28;20117;-64
2022/04/11 13:39:54;;;;;;;6.50;3.00;;;;;;;;;;5015527;28;20029;-65
2022/04/11 13:42:20;;;;;;;4.20;2.78;;;;;;;;;;5022712;28;20434;-64
2022/04/11 13:44:45;;;;;;;4.45;2.70;;;;;;;;;;5017291;28;20049;-65
2022/04/11 13:47:10;;;;;;;4.93;3.00;;;;;;;;;;5021736;28;20052;-64
2022/04/11 13:49:36;;;;;;;6.70;2.88;;;;;;;;;;5013913;28;20113;-65
2022/04/11 13:52:02;;;;;;;5.47;3.30;;;;;;;;;;5018001;28;20078;-64
2022/04/11 13:54:28;;;;;;;5.80;2.80;;;;;;;;;;5026400;28;20034;-65
2022/04/11 13:56:53;;;;;;;6.07;3.17;;;;;;;;;;5016428;28;20490;-65
2022/04/11 13:59:20;;;;;;;5.60;3.10;;;;;;;;;;5020682;28;20420;-65
2022/04/11 14:01:47;;;;;;;7.40;3.45;;;;;;;;;;5013308;28;20116;-65
2022/04/11 14:04:20;;;;;;;5.22;3.13;;;;;;;;;;5014359;28;20383;-65
2022/04/11 14:06:59;;;;;;;5.47;2.83;;;;;;;;;;5016537;28;20045;-65
2022/04/11 14:09:25;;;;;;;6.28;3.00;;;;;;;;;;5012239;28;20419;-65
2022/04/11 14:11:50;;;;;;;8.25;3.05;;;;;;;;;;5014528;28;20025;-66
2022/04/11 14:14:15;;;;;;;8.40;2.83;;;;;;;;;;5014037;28;20038;-65
2022/04/11 14:16:41;;;;;;;4.88;2.63;;;;;;;;;;5012608;28;20030;-66
2022/04/11 14:19:06;;;;;;;6.53;2.85;;;;;;;;;;5014398;28;20026;-66
2022/04/11 14:21:32;;;;;;;8.00;2.83;;;;;;;;;;5015782;28;20073;-65
2022/04/11 14:23:58;;;;;;;5.40;2.80;;;;;;;;;;5052415;28;20035;-66
2022/04/11 14:26:23;;;;;;;6.03;2.90;;;;;;;;;;5053114;28;20078;-65
2022/04/11 14:28:49;;;;;;;4.95;3.20;;;;;;;;;;5034421;28;20029;-65
2022/04/11 14:31:14;;;;;;;6.22;3.38;;;;;;;;;;5032470;28;20033;-65
2022/04/11 14:33:41;;;;;;;5.35;3.33;;;;;;;;;;5024000;28;20033;-65
2022/04/11 14:36:09;;;;;;;5.57;3.42;;;;;;;;;;5017880;28;20037;-66
2022/04/11 14:38:37;;;;;;;5.00;3.85;;;;;;;;;;5018192;28;20095;-66
2022/04/11 14:41:03;;;;;;;6.97;4.13;;;;;;;;;;5017779;28;20195;-65
2022/04/11 14:43:28;;;;;;;6.18;3.50;;;;;;;;;;5035816;28;20506;-66
2022/04/11 14:45:54;;;;;;;4.93;2.83;;;;;;;;;;5028613;28;20038;-66